Time;durP1;ratioP1;P1;durP2;ratioP2;P2;SDS_P1;SDS_P2;PMS_P1;PMS_P2;Temp;Humidity;BMP_temperature;BMP_pressure;BME280_temperature;BME280_humidity;BME280_pressure;Samples;Min_cycle;Max_cycle;Signal;HPM_P1;HPM_P2
2023/02/03 00:01:36;;;;;;;22.75;2.85;;;;;;;8.18;100.00;102489.41;5021057;28;20026;-41
2023/02/03 00:04:02;;;;;;;27.58;4.00;;;;;;;8.13;100.00;102490.63;5032619;28;20670;-41
2023/02/03 00:06:27;;;;;;;21.15;4.15;;;;;;;8.09;100.00;102488.34;5024359;28;20131;-42
2023/02/03 00:08:54;;;;;;;18.95;3.25;;;;;;;8.06;100.00;102492.13;5026410;28;20037;-42
2023/02/03 00:11:20;;;;;;;31.88;4.35;;;;;;;8.05;100.00;102490.41;5032034;28;20044;-41
2023/02/03 00:13:46;;;;;;;26.20;3.10;;;;;;;8.02;100.00;102471.91;5031943;28;20392;-41
2023/02/03 00:16:11;;;;;;;27.85;3.60;;;;;;;8.04;100.00;102469.09;5032901;28;20029;-42
2023/02/03 00:18:38;;;;;;;30.48;4.55;;;;;;;8.04;100.00;102469.94;5031955;28;20087;-42
2023/02/03 00:21:03;;;;;;;20.92;3.50;;;;;;;8.07;100.00;102475.06;5032172;28;20025;-42
2023/02/03 00:23:30;;;;;;;12.98;2.83;;;;;;;8.13;100.00;102481.75;5031869;28;20021;-42
2023/02/03 00:25:57;;;;;;;23.30;3.53;;;;;;;8.17;100.00;102495.78;5032554;28;20056;-43
2023/02/03 00:28:22;;;;;;;27.33;3.92;;;;;;;8.20;100.00;102490.16;5031366;28;20473;-40
2023/02/03 00:30:48;;;;;;;15.48;2.55;;;;;;;8.23;100.00;102490.75;5030971;28;20057;-41
2023/02/03 00:33:13;;;;;;;29.20;3.38;;;;;;;8.26;100.00;102481.59;5031859;28;20746;-41
2023/02/03 00:35:39;;;;;;;21.75;4.35;;;;;;;8.25;100.00;102501.34;5031639;28;20092;-42
2023/02/03 00:38:05;;;;;;;27.52;3.08;;;;;;;8.26;100.00;102511.94;5031808;28;20064;-42
2023/02/03 00:40:30;;;;;;;31.85;4.03;;;;;;;8.28;100.00;102498.41;5032187;28;20018;-42
2023/02/03 00:42:55;;;;;;;33.05;3.85;;;;;;;8.27;100.00;102504.78;5024866;28;20156;-42
2023/02/03 00:45:21;;;;;;;21.30;2.42;;;;;;;8.28;100.00;102498.41;5012504;28;20032;-43
2023/02/03 00:47:46;;;;;;;34.03;3.55;;;;;;;8.29;100.00;102508.16;5016047;28;20404;-42
2023/02/03 00:50:11;;;;;;;37.85;3.80;;;;;;;8.29;100.00;102478.66;5031464;28;20424;-42
2023/02/03 00:52:37;;;;;;;18.38;2.58;;;;;;;8.29;100.00;102494.75;5014901;28;20033;-42
2023/02/03 00:55:03;;;;;;;24.42;2.65;;;;;;;8.36;100.00;102506.69;5012190;28;20111;-42
2023/02/03 00:57:28;;;;;;;21.52;2.42;;;;;;;8.39;100.00;102498.41;5012495;28;20059;-42
2023/02/03 00:59:54;;;;;;;19.75;3.17;;;;;;;8.40;100.00;102486.72;5012277;28;20509;-43
2023/02/03 01:02:20;;;;;;;18.30;2.88;;;;;;;8.39;100.00;102487.69;5015404;28;20030;-42
2023/02/03 01:04:45;;;;;;;21.65;3.10;;;;;;;8.40;100.00;102488.53;5011705;28;20489;-42
2023/02/03 01:07:11;;;;;;;13.65;2.53;;;;;;;8.38;100.00;102485.94;5012183;28;20026;-41
2023/02/03 01:09:37;;;;;;;19.77;2.45;;;;;;;8.40;100.00;102486.72;5029254;28;20440;-40
2023/02/03 01:12:03;;;;;;;19.42;2.55;;;;;;;8.40;100.00;102478.66;5010687;28;20116;-42
2023/02/03 01:14:29;;;;;;;17.35;2.28;;;;;;;8.39;100.00;102468.91;5010663;28;20053;-41
2023/02/03 01:16:54;;;;;;;29.75;2.55;;;;;;;8.40;100.00;102470.63;5013211;28;20832;-41
2023/02/03 01:19:20;;;;;;;30.85;3.50;;;;;;;8.44;100.00;102488.16;5029960;28;20453;-41
2023/02/03 01:21:45;;;;;;;24.90;3.88;;;;;;;8.44;100.00;102504.25;5027200;28;20041;-40
2023/02/03 01:24:10;;;;;;;31.58;3.00;;;;;;;8.46;100.00;102496.94;5030262;28;20380;-40
2023/02/03 01:26:36;;;;;;;24.40;2.92;;;;;;;8.46;100.00;102470.09;5030583;28;20032;-41
2023/02/03 01:29:02;;;;;;;38.45;3.20;;;;;;;8.48;100.00;102457.41;5016287;28;20026;-41
2023/02/03 01:31:32;;;;;;;14.10;2.25;;;;;;;8.47;100.00;102438.75;5009894;28;20034;-41
2023/02/03 01:33:57;;;;;;;22.23;2.67;;;;;;;8.50;100.00;102423.22;5017023;28;20084;-42
2023/02/03 01:36:27;;;;;;;21.73;2.22;;;;;;;8.51;100.00;102437.53;5030472;28;20037;-43
2023/02/03 01:38:53;;;;;;;36.40;4.15;;;;;;;8.54;100.00;102434.56;5017503;28;20509;-41
2023/02/03 01:41:40;;;;;;;23.75;3.13;;;;;;;8.53;100.00;102454.31;5031374;28;20155;-41
2023/02/03 01:44:44;;;;;;;14.02;2.28;;;;;;;8.56;100.00;102449.56;5014188;28;20042;-42
2023/02/03 01:47:22;;;;;;;22.38;2.60;;;;;;;8.55;100.00;102458.56;5031286;28;20476;-42
2023/02/03 01:49:53;;;;;;;20.27;2.42;;;;;;;8.54;100.00;102443.47;5033266;28;20033;-42
2023/02/03 01:52:19;;;;;;;19.10;2.17;;;;;;;8.57;100.00;102439.69;5020431;28;20040;-42
2023/02/03 01:54:47;;;;;;;21.02;2.20;;;;;;;8.57;100.00;102439.69;5014998;28;20234;-42
2023/02/03 01:57:16;;;;;;;22.02;2.90;;;;;;;8.60;100.00;102438.56;5015424;28;20056;-42
2023/02/03 01:59:42;;;;;;;24.90;2.42;;;;;;;8.57;100.00;102451.25;5031659;28;20021;-41
2023/02/03 02:02:08;;;;;;;26.73;2.70;;;;;;;8.57;100.00;102443.22;5020762;28;20060;-41
2023/02/03 02:04:41;;;;;;;26.42;3.85;;;;;;;8.58;100.00;102444.03;5015017;28;20032;-40
2023/02/03 02:07:08;;;;;;;30.35;4.25;;;;;;;8.59;100.00;102442.25;5030776;28;20449;-40
2023/02/03 02:09:33;;;;;;;16.83;2.63;;;;;;;8.61;100.00;102457.22;5027617;28;20393;-39
2023/02/03 02:11:58;;;;;;;21.75;2.50;;;;;;;8.64;100.00;102445.38;5024917;28;20033;-42
2023/02/03 02:14:24;;;;;;;21.27;3.13;;;;;;;8.62;100.00;102420.50;5034717;28;20033;-42
2023/02/03 02:16:58;;;;;;;21.77;2.75;;;;;;;8.67;100.00;102407.53;5034882;28;20029;-43
2023/02/03 02:20:01;;;;;;;12.73;2.30;;;;;;;8.65;100.00;102415.72;5033140;28;20572;-41
2023/02/03 02:22:33;;;;;;;14.95;2.90;;;;;;;8.66;100.00;102416.56;5033397;28;20116;-40
2023/02/03 02:25:01;;;;;;;20.02;2.13;;;;;;;8.65;100.00;102421.09;5034518;28;20030;-42
2023/02/03 02:27:42;;;;;;;21.65;2.40;;;;;;;8.68;100.00;102410.09;5034669;28;20095;-40
2023/02/03 02:30:42;;;;;;;14.02;2.17;;;;;;;8.65;100.00;102410.34;5014637;28;20045;-40
2023/02/03 02:33:32;;;;;;;20.30;2.30;;;;;;;8.66;100.00;102419.25;5014983;28;20112;-40
2023/02/03 02:36:31;;;;;;;25.95;3.17;;;;;;;8.65;100.00;102410.34;5007699;28;20042;-41
2023/02/03 02:38:59;;;;;;;23.75;2.47;;;;;;;8.68;100.00;102430.72;5013492;28;20116;-41
2023/02/03 02:41:51;;;;;;;20.33;2.63;;;;;;;8.67;100.00;102429.88;5018967;28;20021;-40
2023/02/03 02:44:29;;;;;;;23.75;3.80;;;;;;;8.65;100.00;102414.88;5017146;28;20577;-40
2023/02/03 02:46:58;;;;;;;23.98;2.55;;;;;;;8.64;100.00;102418.56;5018757;28;20040;-41
2023/02/03 02:49:41;;;;;;;21.98;2.70;;;;;;;8.66;100.00;102438.91;5016141;28;20034;-40
2023/02/03 02:52:07;;;;;;;19.80;2.40;;;;;;;8.66;100.00;102430.88;5023309;28;20060;-42
2023/02/03 02:54:37;;;;;;;19.88;2.30;;;;;;;8.64;100.00;102427.44;5031543;28;20555;-40
2023/02/03 02:57:04;;;;;;;20.63;2.63;;;;;;;8.66;100.00;102427.28;5031961;28;20037;-41
2023/02/03 02:59:29;;;;;;;23.20;2.55;;;;;;;8.64;100.00;102429.28;5012926;28;20030;-41
2023/02/03 03:01:54;;;;;;;25.13;3.40;;;;;;;8.62;100.00;102425.88;5021845;28;20038;-40
2023/02/03 03:04:24;;;;;;;23.63;3.30;;;;;;;8.63;100.00;102406.09;5033096;28;20120;-40
2023/02/03 03:07:00;;;;;;;28.02;4.38;;;;;;;8.60;100.00;102411.72;5032553;28;20029;-40
2023/02/03 03:09:34;;;;;;;30.27;2.72;;;;;;;8.57;100.00;102411.00;5014002;28;20129;-41
2023/02/03 03:12:23;;;;;;;24.73;2.60;;;;;;;8.56;100.00;102395.06;5023239;28;20021;-42
2023/02/03 03:14:53;;;;;;;30.30;2.70;;;;;;;8.53;100.00;102401.53;5032530;28;20396;-41
2023/02/03 03:17:24;;;;;;;25.20;2.83;;;;;;;8.53;100.00;102390.78;5027806;28;20501;-41
2023/02/03 03:19:54;;;;;;;24.23;2.13;;;;;;;8.55;100.00;102396.84;5012608;28;20030;-41
2023/02/03 03:22:24;;;;;;;17.52;2.00;;;;;;;8.53;100.00;102408.69;5010637;28;20026;-40
2023/02/03 03:25:13;;;;;;;16.88;2.30;;;;;;;8.52;100.00;102415.91;5009788;28;20063;-41
2023/02/03 03:27:43;;;;;;;20.15;2.40;;;;;;;8.53;100.00;102419.44;4997164;28;20137;-41
2023/02/03 03:30:17;;;;;;;24.02;2.83;;;;;;;8.53;100.00;102414.06;5014883;28;20029;-41
2023/02/03 03:32:43;;;;;;;23.58;2.92;;;;;;;8.52;100.00;102410.53;4973658;28;1067752;-40
2023/02/03 03:35:08;;;;;;;23.45;2.92;;;;;;;8.51;100.00;102424.09;5011069;28;20033;-41
2023/02/03 03:37:47;;;;;;;17.17;2.25;;;;;;;8.52;100.00;102426.63;5012440;28;20372;-43
2023/02/03 03:40:21;;;;;;;17.40;2.17;;;;;;;8.53;100.00;102412.25;5012731;28;20459;-41
2023/02/03 03:42:49;;;;;;;30.88;2.75;;;;;;;8.54;100.00;102405.06;5017513;28;20435;-41
2023/02/03 03:45:20;;;;;;;;;;;;;;;8.52;100.00;102405.16;5032274;28;20028;-40
2023/02/03 03:48:10;;;;;;;20.67;2.42;;;;;;;8.50;100.00;102436.66;5026000;28;20023;-42
2023/02/03 03:50:49;;;;;;;28.08;3.38;;;;;;;8.48;100.00;102401.06;5027475;28;20343;-42
2023/02/03 03:53:15;;;;;;;21.48;2.53;;;;;;;8.48;100.00;102409.13;5029478;28;20592;-41
2023/02/03 03:55:42;;;;;;;20.80;2.53;;;;;;;8.46;100.00;102405.69;5029711;28;20487;-41
2023/02/03 03:58:27;;;;;;;24.02;3.00;;;;;;;8.43;100.00;102427.44;5015592;28;20025;-42
2023/02/03 04:00:56;;;;;;;18.98;2.03;;;;;;;8.43;100.00;102416.69;5010686;28;20065;-41
2023/02/03 04:03:30;;;;;;;24.45;3.10;;;;;;;8.41;100.00;102421.34;5022585;28;20021;-41
2023/02/03 04:05:56;;;;;;;14.35;2.65;;;;;;;8.40;100.00;102411.59;5031804;28;20041;-42
2023/02/03 04:08:21;;;;;;;17.77;2.80;;;;;;;8.43;100.00;102421.22;5031028;28;20032;-42
2023/02/03 04:10:46;;;;;;;21.30;2.40;;;;;;;8.43;100.00;102432.78;5031866;28;20052;-41
2023/02/03 04:13:12;;;;;;;26.52;2.80;;;;;;;8.46;100.00;102424.47;5019761;28;20049;-41
2023/02/03 04:15:37;;;;;;;19.98;2.13;;;;;;;8.42;100.00;102423.03;5021907;28;20060;-40
2023/02/03 04:18:03;;;;;;;16.17;2.33;;;;;;;8.42;100.00;102423.03;5031453;28;20038;-40
2023/02/03 04:20:30;;;;;;;24.20;2.55;;;;;;;8.44;100.00;102413.03;5031706;28;20087;-40
2023/02/03 04:22:56;;;;;;;22.25;2.90;;;;;;;8.41;100.00;102432.06;5032319;28;20035;-39
2023/02/03 04:25:21;;;;;;;24.20;2.85;;;;;;;8.38;100.00;102428.78;5031781;28;20026;-41
2023/02/03 04:27:47;;;;;;;20.63;2.88;;;;;;;8.35;100.00;102424.50;5025325;28;20109;-40
2023/02/03 04:30:13;;;;;;;29.85;3.50;;;;;;;8.37;100.00;102438.63;5012107;28;20037;-39
2023/02/03 04:32:38;;;;;;;20.50;2.08;;;;;;;8.36;100.00;102434.25;5027276;28;20311;-40
2023/02/03 04:35:05;;;;;;;22.35;2.55;;;;;;;8.33;100.00;102427.31;5031758;28;20052;-41
2023/02/03 04:37:30;;;;;;;26.00;2.67;;;;;;;8.31;100.00;102444.50;5030882;28;20117;-40
2023/02/03 04:39:56;;;;;;;26.83;3.80;;;;;;;8.27;100.00;102449.28;5024074;28;20112;-42
2023/02/03 04:42:22;;;;;;;18.83;2.33;;;;;;;8.25;100.00;102445.88;5025594;28;20025;-39
2023/02/03 04:44:48;;;;;;;23.25;3.22;;;;;;;8.24;100.00;102437.94;5012731;28;20030;-41
2023/02/03 04:47:13;;;;;;;30.95;2.70;;;;;;;8.24;100.00;102454.03;5012918;28;20500;-41
2023/02/03 04:49:38;;;;;;;32.97;3.17;;;;;;;8.23;100.00;102442.47;5023635;28;20026;-40
2023/02/03 04:52:04;;;;;;;22.83;3.25;;;;;;;8.21;100.00;102451.63;5015123;28;20029;-40
2023/02/03 04:54:29;;;;;;;30.55;3.25;;;;;;;8.19;100.00;102451.75;5021335;28;20105;-41
2023/02/03 04:56:55;;;;;;;21.38;3.40;;;;;;;8.26;100.00;102452.09;5009936;28;20026;-41
2023/02/03 04:59:20;;;;;;;31.08;4.32;;;;;;;8.25;100.00;102456.59;5023230;28;20048;-41
2023/02/03 05:01:45;;;;;;;26.75;3.28;;;;;;;8.26;100.00;102446.72;5020180;28;20118;-41
2023/02/03 05:04:11;;;;;;;31.50;3.30;;;;;;;8.27;100.00;102451.13;5027724;28;20041;-41
2023/02/03 05:06:36;;;;;;;26.67;3.40;;;;;;;8.28;100.00;102436.72;5015432;28;20069;-41
2023/02/03 05:09:02;;;;;;;27.65;2.17;;;;;;;8.28;100.00;102436.72;5021932;28;20030;-41
2023/02/03 05:11:27;;;;;;;21.42;2.85;;;;;;;8.29;100.00;102433.94;5032736;28;20083;-42
2023/02/03 05:13:53;;;;;;;24.88;2.63;;;;;;;8.28;100.00;102442.09;5029200;28;20033;-42
2023/02/03 05:16:18;;;;;;;28.35;2.63;;;;;;;8.29;100.00;102446.47;5030703;28;20030;-42
2023/02/03 05:18:44;;;;;;;28.88;2.55;;;;;;;8.29;100.00;102443.78;5018534;28;20069;-42
2023/02/03 05:21:09;;;;;;;25.63;2.92;;;;;;;8.29;100.00;102441.09;5009139;28;20034;-41
2023/02/03 05:23:34;;;;;;;19.05;2.33;;;;;;;8.30;100.00;102440.13;5019046;28;20036;-42
2023/02/03 05:26:00;;;;;;;32.70;3.42;;;;;;;8.30;100.00;102440.13;5028511;28;20033;-41
2023/02/03 05:28:25;;;;;;;29.40;3.00;;;;;;;8.25;100.00;102434.31;5026583;28;20500;-41
2023/02/03 05:30:51;;;;;;;26.88;3.13;;;;;;;8.23;100.00;102441.63;5028021;28;20120;-41
2023/02/03 05:33:16;;;;;;;35.00;3.17;;;;;;;8.21;100.00;102438.19;5019360;28;20065;-42
2023/02/03 05:35:41;;;;;;;30.52;3.33;;;;;;;8.17;100.00;102437.63;5006800;28;20048;-41
2023/02/03 05:38:07;;;;;;;28.45;2.45;;;;;;;8.19;100.00;102445.53;5013217;28;20041;-41
2023/02/03 05:43:16;;;;;;;20.30;2.55;;;;;;;8.22;100.00;102443.47;5022164;28;20041;-41
2023/02/03 05:45:41;;;;;;;32.53;4.05;;;;;;;8.22;100.00;102439.94;5009317;28;20049;-41
2023/02/03 05:48:07;;;;;;;26.55;2.55;;;;;;;8.23;100.00;102447.81;5021155;28;20045;-40
2023/02/03 05:50:33;;;;;;;28.70;3.10;;;;;;;8.22;100.00;102442.59;5026267;28;20038;-40
2023/02/03 05:52:59;;;;;;;32.17;3.35;;;;;;;8.21;100.00;102425.63;5018707;28;20045;-40
2023/02/03 05:55:26;;;;;;;29.83;2.83;;;;;;;8.21;100.00;102451.63;5024079;28;20042;-40
2023/02/03 05:57:51;;;;;;;43.45;3.97;;;;;;;8.16;100.00;102446.63;5016710;28;20030;-42
2023/02/03 06:00:17;;;;;;;31.40;3.50;;;;;;;8.15;100.00;102450.28;5025151;28;20021;-42
2023/02/03 06:02:42;;;;;;;31.88;3.45;;;;;;;8.12;100.00;102456.75;5019710;28;20037;-42
2023/02/03 06:05:07;;;;;;;17.13;2.83;;;;;;;8.10;100.00;102461.38;5018836;28;20115;-42
2023/02/03 06:07:33;;;;;;;28.67;3.45;;;;;;;8.06;100.00;102456.44;5016515;28;20040;-41
2023/02/03 06:09:58;;;;;;;31.38;3.17;;;;;;;8.03;100.00;102452.16;5027920;28;20033;-41
2023/02/03 06:12:23;;;;;;;29.83;3.30;;;;;;;8.02;100.00;102449.59;5026842;28;20091;-40
2023/02/03 06:14:49;;;;;;;33.35;3.40;;;;;;;8.00;100.00;102457.75;5027400;28;20029;-39
2023/02/03 06:17:14;;;;;;;19.30;2.58;;;;;;;7.98;100.00;102435.59;5015252;28;20033;-40
2023/02/03 06:19:39;;;;;;;32.60;3.63;;;;;;;7.97;100.00;102441.94;5010135;28;20072;-42
2023/02/03 06:22:05;;;;;;;27.60;3.28;;;;;;;7.96;100.00;102440.25;5023911;28;20042;-40
2023/02/03 06:24:30;;;;;;;28.45;2.88;;;;;;;7.97;100.00;102441.09;5012551;28;20034;-42
2023/02/03 06:26:55;;;;;;;25.15;2.97;;;;;;;7.97;100.00;102449.97;5019156;28;20065;-41
2023/02/03 06:29:21;;;;;;;29.23;3.22;;;;;;;7.98;100.00;102445.47;5014349;28;20076;-43
2023/02/03 06:31:46;;;;;;;27.60;3.42;;;;;;;7.98;100.00;102465.09;5012410;28;20100;-43
2023/02/03 06:34:11;;;;;;;21.45;2.67;;;;;;;8.00;100.00;102467.63;5020071;28;20772;-40
2023/02/03 06:36:37;;;;;;;27.95;2.42;;;;;;;8.00;100.00;102473.84;5019777;28;20460;-41
2023/02/03 06:39:02;;;;;;;17.77;2.80;;;;;;;8.04;100.00;102469.09;5024897;28;20025;-42
2023/02/03 06:41:29;;;;;;;30.42;3.78;;;;;;;8.03;100.00;102470.06;5016981;28;20030;-42
2023/02/03 06:43:55;;;;;;;15.32;3.40;;;;;;;8.04;100.00;102483.34;5017865;28;20038;-42
2023/02/03 06:46:20;;;;;;;23.83;3.42;;;;;;;8.05;100.00;102470.78;5012054;28;20030;-41
2023/02/03 06:48:45;;;;;;;24.60;2.88;;;;;;;8.07;100.00;102475.06;5012119;28;20038;-42
2023/02/03 06:51:11;;;;;;;22.25;2.67;;;;;;;8.10;100.00;102500.78;5012417;28;20057;-40
2023/02/03 06:53:36;;;;;;;34.80;3.67;;;;;;;8.10;100.00;102490.88;5027987;28;20477;-41
2023/02/03 06:56:02;;;;;;;33.85;3.53;;;;;;;8.13;100.00;102500.50;5032549;28;20025;-41
2023/02/03 06:58:27;;;;;;;29.13;3.50;;;;;;;8.19;100.00;102501.84;5031423;28;20036;-41
2023/02/03 07:00:56;;;;;;;29.25;3.47;;;;;;;8.20;100.00;102517.81;5032288;28;20096;-41
2023/02/03 07:03:21;;;;;;;24.55;3.45;;;;;;;8.23;100.00;102506.00;5026658;28;20041;-42
2023/02/03 07:05:46;;;;;;;28.50;3.20;;;;;;;8.26;100.00;102500.38;5032443;28;20029;-41
2023/02/03 07:08:12;;;;;;;36.90;4.00;;;;;;;8.27;100.00;102507.47;5032338;28;20032;-40
2023/02/03 07:10:37;;;;;;;30.25;3.33;;;;;;;8.26;100.00;102508.41;5032447;28;20029;-41
2023/02/03 07:13:05;;;;;;;26.75;3.33;;;;;;;8.27;100.00;102504.78;5030667;28;20439;-41
2023/02/03 07:15:31;;;;;;;29.35;3.70;;;;;;;8.30;100.00;102509.88;5029728;28;20033;-42
2023/02/03 07:17:56;;;;;;;33.40;3.40;;;;;;;8.32;100.00;102513.25;5012069;28;20049;-43
2023/02/03 07:20:23;;;;;;;35.08;4.50;;;;;;;8.35;100.00;102527.28;5016949;28;20027;-42
2023/02/03 07:22:52;;;;;;;33.88;4.00;;;;;;;8.39;100.00;102517.19;5024921;28;20121;-42
2023/02/03 07:25:18;;;;;;;23.88;3.25;;;;;;;8.38;100.00;102523.50;5010986;28;20101;-39
2023/02/03 07:27:43;;;;;;;25.63;3.55;;;;;;;8.38;100.00;102526.19;5011315;28;20045;-40
2023/02/03 07:30:09;;;;;;;25.40;3.67;;;;;;;8.37;100.00;102527.16;5011042;28;20018;-42
2023/02/03 07:32:35;;;;;;;31.60;3.88;;;;;;;8.40;100.00;102515.34;5020037;28;20045;-42
2023/02/03 07:35:00;;;;;;;31.00;3.47;;;;;;;8.39;100.00;102511.81;5023351;28;20447;-41
2023/02/03 07:37:26;;;;;;;34.03;4.13;;;;;;;8.43;100.00;102509.75;5016388;28;20489;-42
2023/02/03 07:39:51;;;;;;;30.10;3.58;;;;;;;8.41;100.00;102509.03;5020135;28;20466;-40
2023/02/03 07:42:16;;;;;;;22.77;3.13;;;;;;;8.39;100.00;102506.47;5019731;28;20203;-41
2023/02/03 07:44:42;;;;;;;38.67;2.95;;;;;;;8.45;100.00;102505.09;5020308;28;20033;-40
2023/02/03 07:47:07;;;;;;;32.25;3.88;;;;;;;8.42;100.00;102516.94;5021539;28;20112;-42
2023/02/03 07:49:32;;;;;;;29.80;3.17;;;;;;;8.49;100.00;102520.81;5021391;28;20182;-41
2023/02/03 07:51:58;;;;;;;33.40;5.25;;;;;;;8.50;100.00;102497.50;5020229;28;20057;-41
2023/02/03 07:54:23;;;;;;;31.55;3.80;;;;;;;8.51;100.00;102520.72;5018507;28;20067;-40
2023/02/03 07:56:48;;;;;;;23.60;2.92;;;;;;;8.57;100.00;102530.91;5018484;28;20469;-41
2023/02/03 07:59:15;;;;;;;23.55;2.78;;;;;;;8.61;100.00;102528.81;5020504;28;20486;-42
2023/02/03 08:01:41;;;;;;;29.42;3.40;;;;;;;8.60;100.00;102511.03;5022146;28;20049;-40
2023/02/03 08:04:07;;;;;;;21.90;3.55;;;;;;;8.61;100.00;102518.97;5021309;28;20021;-40
2023/02/03 08:06:33;;;;;;;28.88;3.50;;;;;;;8.61;100.00;102543.13;5020661;28;20036;-42
2023/02/03 08:08:58;;;;;;;33.60;3.90;;;;;;;8.61;100.00;102547.59;5022195;28;20025;-41
2023/02/03 08:11:23;;;;;;;27.67;2.97;;;;;;;8.65;100.00;102555.28;5021986;28;20025;-41
2023/02/03 08:13:49;;;;;;;23.40;2.92;;;;;;;8.64;100.00;102547.38;5031500;28;20017;-41
2023/02/03 08:16:14;;;;;;;24.40;3.08;;;;;;;8.65;100.00;102547.22;5028920;28;20057;-41
2023/02/03 08:18:39;;;;;;;27.88;2.78;;;;;;;8.65;100.00;102549.06;5023490;28;20029;-41
2023/02/03 08:21:05;;;;;;;29.20;3.70;;;;;;;8.66;100.00;102550.75;5022474;28;20109;-40
2023/02/03 08:23:30;;;;;;;25.23;3.15;;;;;;;8.68;100.00;102570.28;5021964;28;20022;-40
2023/02/03 08:25:55;;;;;;;32.17;3.05;;;;;;;8.71;100.00;102559.28;5023085;28;20029;-41
2023/02/03 08:28:21;;;;;;;21.02;2.50;;;;;;;8.71;100.00;102564.66;5021706;28;20022;-43
2023/02/03 08:30:46;;;;;;;28.67;2.90;;;;;;;8.69;100.00;102553.19;5022029;28;20026;-42
2023/02/03 08:33:12;;;;;;;27.35;3.10;;;;;;;8.73;100.00;102562.72;5022753;28;20049;-42
2023/02/03 08:35:38;;;;;;;22.70;2.90;;;;;;;8.72;100.00;102577.97;5018987;28;20022;-43
2023/02/03 08:38:04;;;;;;;20.92;3.60;;;;;;;8.71;100.00;102565.50;5021114;28;20018;-43
2023/02/03 08:40:29;;;;;;;37.20;4.07;;;;;;;8.69;100.00;102562.13;5021367;28;20025;-43
2023/02/03 08:42:54;;;;;;;37.80;2.95;;;;;;;8.73;100.00;102557.34;5020194;28;20061;-45
2023/02/03 08:45:20;;;;;;;33.33;3.70;;;;;;;8.74;100.00;102567.09;5022435;28;20064;-43
2023/02/03 08:47:45;;;;;;;23.80;3.28;;;;;;;8.70;100.00;102579.06;5021079;28;20068;-44
2023/02/03 08:50:12;;;;;;;30.42;3.97;;;;;;;8.68;100.00;102581.88;5020830;28;20033;-43
2023/02/03 08:52:37;;;;;;;33.67;3.60;;;;;;;8.70;100.00;102596.03;5022815;28;20079;-42
2023/02/03 08:55:03;;;;;;;25.95;3.15;;;;;;;8.75;100.00;102583.06;5021112;28;20033;-43
2023/02/03 08:57:33;;;;;;;29.33;4.22;;;;;;;8.82;100.00;102582.56;5020961;28;20034;-43
2023/02/03 08:59:58;;;;;;;30.48;3.10;;;;;;;8.86;100.00;102584.88;5022315;28;20014;-43
2023/02/03 09:02:24;;;;;;;26.75;3.47;;;;;;;8.89;100.00;102587.28;5019505;28;20040;-43
2023/02/03 09:04:50;;;;;;;31.98;3.53;;;;;;;8.93;100.00;102583.38;5022159;28;20060;-44
2023/02/03 09:07:16;;;;;;;31.00;3.85;;;;;;;8.91;100.00;102587.16;5020547;28;20056;-43
2023/02/03 09:09:41;;;;;;;33.92;4.07;;;;;;;8.87;100.00;102591.94;5021280;28;20628;-44
2023/02/03 09:12:07;;;;;;;34.83;3.70;;;;;;;8.92;100.00;102605.81;5021874;28;20054;-42
2023/02/03 09:14:33;;;;;;;38.28;4.38;;;;;;;8.91;100.00;102598.75;5020277;28;20345;-43
2023/02/03 09:17:00;;;;;;;40.47;3.38;;;;;;;8.88;100.00;102599.03;5024049;28;20091;-42
2023/02/03 09:19:25;;;;;;;31.17;3.88;;;;;;;8.87;100.00;102608.03;5021810;28;20021;-43
2023/02/03 09:21:51;;;;;;;29.48;4.18;;;;;;;8.89;100.00;102616.81;5022579;28;20505;-45
2023/02/03 09:24:17;;;;;;;35.53;3.35;;;;;;;8.92;100.00;102602.28;5020400;28;20104;-42
2023/02/03 09:26:43;;;;;;;24.27;2.95;;;;;;;8.96;100.00;102601.91;5021328;28;20036;-42
2023/02/03 09:29:08;;;;;;;34.58;3.47;;;;;;;9.02;100.00;102606.75;5021798;28;20025;-43
2023/02/03 09:31:34;;;;;;;49.95;4.05;;;;;;;9.17;100.00;102620.75;5019637;28;20025;-42
2023/02/03 09:33:59;;;;;;;30.17;4.95;;;;;;;9.31;100.00;102614.19;5021261;28;20392;-43
2023/02/03 09:36:25;;;;;;;30.40;3.78;;;;;;;9.43;100.00;102598.88;5019021;28;20064;-43
2023/02/03 09:38:50;;;;;;;22.83;2.42;;;;;;;9.57;100.00;102608.44;5021384;28;20031;-42
2023/02/03 09:41:30;;;;;;;22.13;2.47;;;;;;;9.73;100.00;102616.03;5021542;28;20030;-43
2023/02/03 09:43:56;;;;;;;20.45;2.67;;;;;;;9.76;100.00;102603.16;5020718;28;20025;-42
2023/02/03 09:46:23;;;;;;;32.78;2.95;;;;;;;9.83;100.00;102592.75;5019482;28;20474;-43
2023/02/03 09:48:55;;;;;;;30.30;3.28;;;;;;;10.08;100.00;102594.09;5019563;28;20036;-43
2023/02/03 09:51:28;;;;;;;29.17;3.35;;;;;;;10.14;100.00;102609.72;5020951;28;20018;-42
2023/02/03 09:54:01;;;;;;;19.77;3.20;;;;;;;10.07;100.00;102608.56;5019096;28;20030;-44
2023/02/03 09:56:30;;;;;;;27.30;3.42;;;;;;;9.99;100.00;102611.06;5018403;28;20083;-43
2023/02/03 09:58:56;;;;;;;29.40;3.17;;;;;;;9.99;100.00;102632.59;5020521;28;20029;-42
2023/02/03 10:01:24;;;;;;;29.98;3.35;;;;;;;10.02;100.00;102637.69;5022354;28;20049;-43
2023/02/03 10:03:55;;;;;;;29.55;2.67;;;;;;;10.01;100.00;102634.16;5029838;28;20022;-44
2023/02/03 10:06:26;;;;;;;20.02;2.35;;;;;;;10.09;100.00;102646.94;5033563;28;20055;-43
2023/02/03 10:09:07;;;;;;;18.95;2.40;;;;;;;10.21;100.00;102651.22;5034083;28;20029;-43
2023/02/03 10:11:51;;;;;;;19.67;2.50;;;;;;;10.27;100.00;102636.41;5033845;28;20030;-43
2023/02/03 10:14:32;;;;;;;20.77;2.45;;;;;;;10.28;100.00;102636.28;5034109;28;20469;-43
2023/02/03 10:17:34;;;;;;;31.95;3.30;;;;;;;10.28;100.00;102654.28;5015906;28;20030;-43
2023/02/03 10:20:08;;;;;;;32.83;3.75;;;;;;;10.37;100.00;102655.28;5034826;28;20025;-43
2023/02/03 10:22:42;;;;;;;20.50;3.17;;;;;;;10.43;100.00;102662.84;5033853;28;20032;-43
2023/02/03 10:25:13;;;;;;;23.17;2.33;;;;;;;10.44;100.00;102656.47;5033669;28;20065;-43
2023/02/03 10:27:40;;;;;;;27.88;2.83;;;;;;;10.41;100.00;102659.44;5034840;28;20036;-44
2023/02/03 10:30:26;;;;;;;22.90;2.33;;;;;;;10.34;100.00;102651.03;5032580;28;20025;-43
2023/02/03 10:32:58;;;;;;;20.95;2.60;;;;;;;10.29;100.00;102640.69;5032508;28;20053;-44
2023/02/03 10:35:34;;;;;;;20.58;2.38;;;;;;;10.27;100.00;102653.44;5031860;28;20057;-42
2023/02/03 10:37:59;;;;;;;25.83;3.63;;;;;;;10.28;100.00;102663.19;5032082;28;20103;-44
2023/02/03 10:40:25;;;;;;;18.77;2.22;;;;;;;10.27;100.00;102653.44;5033913;28;20025;-43
2023/02/03 10:45:37;;;;;;;20.00;2.95;;;;;;;10.46;100.00;102684.09;5032167;28;20036;-42
2023/02/03 10:48:04;;;;;;;21.33;2.65;;;;;;;10.50;100.00;102678.28;5031611;28;20044;-43
2023/02/03 10:50:32;;;;;;;18.23;2.63;;;;;;;10.64;100.00;102687.84;5033237;28;20148;-42
2023/02/03 10:53:19;;;;;;;17.52;2.72;;;;;;;10.47;100.00;102685.78;5032909;28;20055;-42
2023/02/03 10:55:47;;;;;;;22.85;2.47;;;;;;;10.44;100.00;102691.44;5033255;28;20104;-42
2023/02/03 10:58:32;;;;;;;24.05;2.67;;;;;;;10.39;100.00;102705.31;5031462;28;20344;-44
2023/02/03 11:01:19;;;;;;;32.92;3.60;;;;;;;10.55;100.00;102694.03;5031640;28;20045;-44
2023/02/03 11:04:02;;;;;;;25.30;2.97;;;;;;;10.54;100.00;102705.81;5032737;28;20469;-44
2023/02/03 11:06:28;;;;;;;22.55;2.67;;;;;;;10.55;100.00;102704.81;5032924;28;20021;-43
2023/02/03 11:08:54;;;;;;;18.55;2.67;;;;;;;10.54;100.00;102705.81;5032806;28;20444;-42
2023/02/03 11:11:24;;;;;;;27.88;2.88;;;;;;;10.62;100.00;102692.50;5032584;28;20690;-44
2023/02/03 11:14:01;;;;;;;22.63;3.30;;;;;;;10.53;100.00;102682.53;5032727;28;20037;-42
2023/02/03 11:16:28;;;;;;;18.80;2.20;;;;;;;10.51;100.00;102698.00;5033081;28;20485;-42
2023/02/03 11:19:09;;;;;;;27.60;3.08;;;;;;;10.46;100.00;102684.09;5033011;28;20285;-43
2023/02/03 11:21:37;;;;;;;19.27;2.53;;;;;;;10.41;100.00;102683.66;5031345;28;20033;-43
2023/02/03 11:24:03;;;;;;;21.67;2.42;;;;;;;10.36;100.00;102686.75;5032554;28;20021;-43
2023/02/03 11:26:32;;;;;;;26.55;3.25;;;;;;;10.40;100.00;102700.78;5032588;28;20052;-44
2023/02/03 11:28:59;;;;;;;24.67;5.00;;;;;;;10.38;100.00;102702.78;5031967;28;20193;-43